sensor_id;sensor_type;location;lat;lon;timestamp;temperature;humidity
76211;DHT22;65003;49.518;11.280;2023-07-08T00:01:18;16.90;66.40
76211;DHT22;65003;49.518;11.280;2023-07-08T00:03:44;16.90;66.40
76211;DHT22;65003;49.518;11.280;2023-07-08T00:06:13;16.90;66.70
76211;DHT22;65003;49.518;11.280;2023-07-08T00:08:38;16.90;66.90
76211;DHT22;65003;49.518;11.280;2023-07-08T00:11:09;17.10;66.30
76211;DHT22;65003;49.518;11.280;2023-07-08T00:13:34;17.10;65.90
76211;DHT22;65003;49.518;11.280;2023-07-08T00:16:01;17.10;66.40
76211;DHT22;65003;49.518;11.280;2023-07-08T00:18:27;17.00;65.90
76211;DHT22;65003;49.518;11.280;2023-07-08T00:20:54;17.00;66.40
76211;DHT22;65003;49.518;11.280;2023-07-08T00:23:20;17.10;66.40
76211;DHT22;65003;49.518;11.280;2023-07-08T00:25:47;17.00;66.40
76211;DHT22;65003;49.518;11.280;2023-07-08T00:28:16;17.00;66.90
76211;DHT22;65003;49.518;11.280;2023-07-08T00:30:42;16.90;66.40
76211;DHT22;65003;49.518;11.280;2023-07-08T00:33:08;16.90;66.90
76211;DHT22;65003;49.518;11.280;2023-07-08T00:35:36;16.90;67.10
76211;DHT22;65003;49.518;11.280;2023-07-08T00:40:34;16.90;67.30
76211;DHT22;65003;49.518;11.280;2023-07-08T00:43:02;17.00;67.20
76211;DHT22;65003;49.518;11.280;2023-07-08T00:45:35;17.10;67.00
76211;DHT22;65003;49.518;11.280;2023-07-08T00:48:00;17.20;67.10
76211;DHT22;65003;49.518;11.280;2023-07-08T00:50:25;17.30;66.90
76211;DHT22;65003;49.518;11.280;2023-07-08T00:53:16;17.50;66.30
76211;DHT22;65003;49.518;11.280;2023-07-08T00:55:19;17.70;65.40
76211;DHT22;65003;49.518;11.280;2023-07-08T00:57:45;17.80;65.10
76211;DHT22;65003;49.518;11.280;2023-07-08T01:00:14;17.80;64.80
76211;DHT22;65003;49.518;11.280;2023-07-08T01:02:44;17.90;64.10
76211;DHT22;65003;49.518;11.280;2023-07-08T01:05:11;17.90;64.20
76211;DHT22;65003;49.518;11.280;2023-07-08T01:07:36;18.00;63.50
76211;DHT22;65003;49.518;11.280;2023-07-08T01:10:06;18.00;63.00
76211;DHT22;65003;49.518;11.280;2023-07-08T01:12:32;18.10;62.70
76211;DHT22;65003;49.518;11.280;2023-07-08T01:14:57;18.00;62.90
76211;DHT22;65003;49.518;11.280;2023-07-08T01:17:24;18.00;62.90
76211;DHT22;65003;49.518;11.280;2023-07-08T01:19:51;18.10;62.60
76211;DHT22;65003;49.518;11.280;2023-07-08T01:22:17;18.10;62.20
76211;DHT22;65003;49.518;11.280;2023-07-08T01:24:44;18.10;62.10
76211;DHT22;65003;49.518;11.280;2023-07-08T01:27:12;17.90;62.00
76211;DHT22;65003;49.518;11.280;2023-07-08T01:29:37;17.50;62.90
76211;DHT22;65003;49.518;11.280;2023-07-08T01:32:04;17.10;64.50
76211;DHT22;65003;49.518;11.280;2023-07-08T01:34:32;17.00;65.30
76211;DHT22;65003;49.518;11.280;2023-07-08T01:36:58;16.80;66.20
76211;DHT22;65003;49.518;11.280;2023-07-08T01:39:25;16.60;66.70
76211;DHT22;65003;49.518;11.280;2023-07-08T01:41:51;16.50;67.20
76211;DHT22;65003;49.518;11.280;2023-07-08T01:46:51;16.50;67.70
76211;DHT22;65003;49.518;11.280;2023-07-08T01:49:17;16.50;67.50
76211;DHT22;65003;49.518;11.280;2023-07-08T01:51:44;16.40;67.80
76211;DHT22;65003;49.518;11.280;2023-07-08T01:54:11;16.50;67.70
76211;DHT22;65003;49.518;11.280;2023-07-08T01:56:37;16.50;77.70
76211;DHT22;65003;49.518;11.280;2023-07-08T01:59:04;16.50;68.10
76211;DHT22;65003;49.518;11.280;2023-07-08T02:01:30;16.50;67.70
76211;DHT22;65003;49.518;11.280;2023-07-08T02:03:57;16.70;67.30
76211;DHT22;65003;49.518;11.280;2023-07-08T02:06:23;16.80;66.60
76211;DHT22;65003;49.518;11.280;2023-07-08T02:08:50;16.90;67.00
76211;DHT22;65003;49.518;11.280;2023-07-08T02:11:17;16.80;66.60
76211;DHT22;65003;49.518;11.280;2023-07-08T02:13:43;16.90;66.60
76211;DHT22;65003;49.518;11.280;2023-07-08T02:16:10;17.00;66.10
76211;DHT22;65003;49.518;11.280;2023-07-08T02:18:37;17.20;65.70
76211;DHT22;65003;49.518;11.280;2023-07-08T02:21:03;17.40;64.80
76211;DHT22;65003;49.518;11.280;2023-07-08T02:23:30;17.60;64.30
76211;DHT22;65003;49.518;11.280;2023-07-08T02:25:56;17.70;63.60
76211;DHT22;65003;49.518;11.280;2023-07-08T02:28:23;17.50;63.80
76211;DHT22;65003;49.518;11.280;2023-07-08T02:30:50;17.40;64.20
76211;DHT22;65003;49.518;11.280;2023-07-08T02:33:16;17.50;64.10
76211;DHT22;65003;49.518;11.280;2023-07-08T02:35:44;17.20;64.90
76211;DHT22;65003;49.518;11.280;2023-07-08T02:38:10;17.00;65.70
76211;DHT22;65003;49.518;11.280;2023-07-08T02:40:38;16.80;66.80
76211;DHT22;65003;49.518;11.280;2023-07-08T02:43:04;16.70;67.10
76211;DHT22;65003;49.518;11.280;2023-07-08T02:45:31;16.60;67.70
76211;DHT22;65003;49.518;11.280;2023-07-08T02:47:57;16.80;67.60
76211;DHT22;65003;49.518;11.280;2023-07-08T02:50:24;16.80;67.30
76211;DHT22;65003;49.518;11.280;2023-07-08T02:52:51;16.70;68.00
76211;DHT22;65003;49.518;11.280;2023-07-08T02:55:17;16.60;68.30
76211;DHT22;65003;49.518;11.280;2023-07-08T02:57:44;16.50;68.50
76211;DHT22;65003;49.518;11.280;2023-07-08T03:00:12;16.50;69.00
76211;DHT22;65003;49.518;11.280;2023-07-08T03:02:38;16.50;69.30
76211;DHT22;65003;49.518;11.280;2023-07-08T03:05:05;16.50;69.20
76211;DHT22;65003;49.518;11.280;2023-07-08T03:07:32;16.50;69.20
76211;DHT22;65003;49.518;11.280;2023-07-08T03:09:58;16.50;70.20
76211;DHT22;65003;49.518;11.280;2023-07-08T03:12:25;16.50;69.70
76211;DHT22;65003;49.518;11.280;2023-07-08T03:14:52;16.50;69.80
76211;DHT22;65003;49.518;11.280;2023-07-08T03:17:18;16.50;69.60
76211;DHT22;65003;49.518;11.280;2023-07-08T03:19:45;16.60;69.50
76211;DHT22;65003;49.518;11.280;2023-07-08T03:22:11;16.70;69.00
76211;DHT22;65003;49.518;11.280;2023-07-08T03:24:38;16.90;68.60
76211;DHT22;65003;49.518;11.280;2023-07-08T03:27:05;17.00;68.60
76211;DHT22;65003;49.518;11.280;2023-07-08T03:29:31;17.20;68.80
76211;DHT22;65003;49.518;11.280;2023-07-08T03:31:58;17.40;68.30
76211;DHT22;65003;49.518;11.280;2023-07-08T03:34:24;17.60;67.70
76211;DHT22;65003;49.518;11.280;2023-07-08T03:36:51;17.70;67.00
76211;DHT22;65003;49.518;11.280;2023-07-08T03:39:18;17.80;66.40
76211;DHT22;65003;49.518;11.280;2023-07-08T03:41:44;17.80;66.20
76211;DHT22;65003;49.518;11.280;2023-07-08T03:44:11;17.90;66.20
76211;DHT22;65003;49.518;11.280;2023-07-08T03:46:38;17.90;66.40
76211;DHT22;65003;49.518;11.280;2023-07-08T03:49:04;17.80;66.50
76211;DHT22;65003;49.518;11.280;2023-07-08T03:51:32;17.80;66.30
76211;DHT22;65003;49.518;11.280;2023-07-08T03:53:57;17.70;67.40
76211;DHT22;65003;49.518;11.280;2023-07-08T03:56:24;17.50;67.90
76211;DHT22;65003;49.518;11.280;2023-07-08T03:58:50;17.40;68.00
76211;DHT22;65003;49.518;11.280;2023-07-08T04:01:19;17.20;68.50
76211;DHT22;65003;49.518;11.280;2023-07-08T04:03:44;17.10;69.00
76211;DHT22;65003;49.518;11.280;2023-07-08T04:06:11;17.00;69.50
76211;DHT22;65003;49.518;11.280;2023-07-08T04:08:37;16.90;69.90
76211;DHT22;65003;49.518;11.280;2023-07-08T04:11:04;17.00;70.60
76211;DHT22;65003;49.518;11.280;2023-07-08T04:13:31;17.10;69.70
76211;DHT22;65003;49.518;11.280;2023-07-08T04:16:01;17.30;68.90
76211;DHT22;65003;49.518;11.280;2023-07-08T04:18:27;17.40;69.00
76211;DHT22;65003;49.518;11.280;2023-07-08T04:20:53;17.30;69.60
76211;DHT22;65003;49.518;11.280;2023-07-08T04:23:20;17.20;69.90
76211;DHT22;65003;49.518;11.280;2023-07-08T04:25:47;17.20;70.40
76211;DHT22;65003;49.518;11.280;2023-07-08T04:28:13;17.20;70.70
76211;DHT22;65003;49.518;11.280;2023-07-08T04:30:40;17.30;70.80
76211;DHT22;65003;49.518;11.280;2023-07-08T04:33:07;17.30;70.90
76211;DHT22;65003;49.518;11.280;2023-07-08T04:35:34;17.30;70.20
76211;DHT22;65003;49.518;11.280;2023-07-08T04:38:00;17.40;69.80
76211;DHT22;65003;49.518;11.280;2023-07-08T04:40:27;17.40;69.90
76211;DHT22;65003;49.518;11.280;2023-07-08T04:42:53;17.50;70.00
76211;DHT22;65003;49.518;11.280;2023-07-08T04:45:20;17.50;69.60
76211;DHT22;65003;49.518;11.280;2023-07-08T04:47:48;17.50;70.10
76211;DHT22;65003;49.518;11.280;2023-07-08T04:50:14;17.60;69.00
76211;DHT22;65003;49.518;11.280;2023-07-08T04:52:41;17.60;69.70
76211;DHT22;65003;49.518;11.280;2023-07-08T04:55:08;17.60;69.40
76211;DHT22;65003;49.518;11.280;2023-07-08T04:57:34;17.60;69.50
76211;DHT22;65003;49.518;11.280;2023-07-08T05:00:01;17.60;68.50
76211;DHT22;65003;49.518;11.280;2023-07-08T05:02:28;17.70;68.70
76211;DHT22;65003;49.518;11.280;2023-07-08T05:04:54;17.70;68.80
76211;DHT22;65003;49.518;11.280;2023-07-08T05:07:21;17.80;68.90
76211;DHT22;65003;49.518;11.280;2023-07-08T05:09:47;18.00;68.70
76211;DHT22;65003;49.518;11.280;2023-07-08T05:12:14;18.10;68.70
76211;DHT22;65003;49.518;11.280;2023-07-08T05:14:41;18.30;68.20
76211;DHT22;65003;49.518;11.280;2023-07-08T05:17:07;18.50;67.00
76211;DHT22;65003;49.518;11.280;2023-07-08T05:19:34;18.60;67.20
76211;DHT22;65003;49.518;11.280;2023-07-08T05:22:01;18.60;67.10
76211;DHT22;65003;49.518;11.280;2023-07-08T05:24:27;18.80;67.50
76211;DHT22;65003;49.518;11.280;2023-07-08T05:26:54;19.00;66.80
76211;DHT22;65003;49.518;11.280;2023-07-08T05:29:20;19.20;66.20
76211;DHT22;65003;49.518;11.280;2023-07-08T05:31:47;19.40;65.80
76211;DHT22;65003;49.518;11.280;2023-07-08T05:34:14;19.70;64.80
76211;DHT22;65003;49.518;11.280;2023-07-08T05:36:40;20.00;64.00
76211;DHT22;65003;49.518;11.280;2023-07-08T05:39:07;20.30;63.00
76211;DHT22;65003;49.518;11.280;2023-07-08T05:41:33;20.50;62.60
76211;DHT22;65003;49.518;11.280;2023-07-08T05:44:00;20.70;70.50
76211;DHT22;65003;49.518;11.280;2023-07-08T05:46:27;20.90;61.00
76211;DHT22;65003;49.518;11.280;2023-07-08T05:48:53;21.00;59.90
76211;DHT22;65003;49.518;11.280;2023-07-08T05:51:20;21.30;60.50
76211;DHT22;65003;49.518;11.280;2023-07-08T05:53:47;21.60;58.70
76211;DHT22;65003;49.518;11.280;2023-07-08T05:56:13;21.90;58.10
76211;DHT22;65003;49.518;11.280;2023-07-08T05:58:40;22.20;57.70
76211;DHT22;65003;49.518;11.280;2023-07-08T06:01:07;22.60;59.90
76211;DHT22;65003;49.518;11.280;2023-07-08T06:03:33;22.90;57.60
76211;DHT22;65003;49.518;11.280;2023-07-08T06:06:00;23.20;54.60
76211;DHT22;65003;49.518;11.280;2023-07-08T06:08:26;23.50;53.50
76211;DHT22;65003;49.518;11.280;2023-07-08T06:10:53;23.70;52.60
76211;DHT22;65003;49.518;11.280;2023-07-08T06:13:19;24.00;52.20
76211;DHT22;65003;49.518;11.280;2023-07-08T06:15:46;24.40;52.00
76211;DHT22;65003;49.518;11.280;2023-07-08T06:18:13;24.80;49.80
76211;DHT22;65003;49.518;11.280;2023-07-08T06:20:39;24.90;50.30
76211;DHT22;65003;49.518;11.280;2023-07-08T06:23:06;25.30;49.70
76211;DHT22;65003;49.518;11.280;2023-07-08T06:25:32;25.60;48.50
76211;DHT22;65003;49.518;11.280;2023-07-08T06:27:59;26.00;47.10
76211;DHT22;65003;49.518;11.280;2023-07-08T06:30:26;26.30;46.50
76211;DHT22;65003;49.518;11.280;2023-07-08T06:32:52;26.80;44.90
76211;DHT22;65003;49.518;11.280;2023-07-08T06:35:19;27.00;44.30
76211;DHT22;65003;49.518;11.280;2023-07-08T06:37:45;27.30;44.20
76211;DHT22;65003;49.518;11.280;2023-07-08T06:40:12;27.80;43.40
76211;DHT22;65003;49.518;11.280;2023-07-08T06:42:39;28.10;43.10
76211;DHT22;65003;49.518;11.280;2023-07-08T06:45:06;28.50;42.20
76211;DHT22;65003;49.518;11.280;2023-07-08T06:47:32;29.00;40.20
76211;DHT22;65003;49.518;11.280;2023-07-08T06:49:59;29.30;40.00
76211;DHT22;65003;49.518;11.280;2023-07-08T06:52:25;30.10;38.40
76211;DHT22;65003;49.518;11.280;2023-07-08T06:54:52;30.20;38.50
76211;DHT22;65003;49.518;11.280;2023-07-08T06:57:19;30.70;37.50
76211;DHT22;65003;49.518;11.280;2023-07-08T06:59:45;30.80;37.00
76211;DHT22;65003;49.518;11.280;2023-07-08T07:02:12;31.00;47.90
76211;DHT22;65003;49.518;11.280;2023-07-08T07:04:39;31.30;35.00
76211;DHT22;65003;49.518;11.280;2023-07-08T07:07:05;31.30;35.50
76211;DHT22;65003;49.518;11.280;2023-07-08T07:09:32;31.80;34.90
76211;DHT22;65003;49.518;11.280;2023-07-08T07:11:58;32.10;35.30
76211;DHT22;65003;49.518;11.280;2023-07-08T07:14:25;33.20;33.50
76211;DHT22;65003;49.518;11.280;2023-07-08T07:16:52;33.30;33.40
76211;DHT22;65003;49.518;11.280;2023-07-08T07:19:19;34.10;31.70
76211;DHT22;65003;49.518;11.280;2023-07-08T07:21:46;34.40;30.50
76211;DHT22;65003;49.518;11.280;2023-07-08T07:24:12;34.40;30.50
76211;DHT22;65003;49.518;11.280;2023-07-08T07:26:39;34.20;30.20
76211;DHT22;65003;49.518;11.280;2023-07-08T07:29:05;34.10;31.20
76211;DHT22;65003;49.518;11.280;2023-07-08T07:31:32;34.50;30.90
76211;DHT22;65003;49.518;11.280;2023-07-08T07:33:59;34.30;30.00
76211;DHT22;65003;49.518;11.280;2023-07-08T07:36:26;34.20;30.40
76211;DHT22;65003;49.518;11.280;2023-07-08T07:38:52;34.70;31.50
76211;DHT22;65003;49.518;11.280;2023-07-08T07:41:18;35.20;29.90
76211;DHT22;65003;49.518;11.280;2023-07-08T07:43:45;36.00;28.40
76211;DHT22;65003;49.518;11.280;2023-07-08T07:46:12;36.70;28.30
76211;DHT22;65003;49.518;11.280;2023-07-08T07:48:38;37.10;28.50
76211;DHT22;65003;49.518;11.280;2023-07-08T07:51:05;37.20;27.70
76211;DHT22;65003;49.518;11.280;2023-07-08T07:53:31;37.80;26.80
76211;DHT22;65003;49.518;11.280;2023-07-08T07:55:59;37.70;27.30
76211;DHT22;65003;49.518;11.280;2023-07-08T07:58:25;37.30;27.40
76211;DHT22;65003;49.518;11.280;2023-07-08T08:00:51;37.20;27.20
76211;DHT22;65003;49.518;11.280;2023-07-08T08:03:19;37.20;27.90
76211;DHT22;65003;49.518;11.280;2023-07-08T08:05:44;37.50;27.10
76211;DHT22;65003;49.518;11.280;2023-07-08T08:08:11;37.70;26.90
76211;DHT22;65003;49.518;11.280;2023-07-08T08:10:38;37.60;26.90
76211;DHT22;65003;49.518;11.280;2023-07-08T08:13:04;38.80;25.90
76211;DHT22;65003;49.518;11.280;2023-07-08T08:15:31;39.00;25.80
76211;DHT22;65003;49.518;11.280;2023-07-08T08:17:57;39.20;26.10
76211;DHT22;65003;49.518;11.280;2023-07-08T08:20:24;39.40;25.40
76211;DHT22;65003;49.518;11.280;2023-07-08T08:22:51;39.00;25.20
76211;DHT22;65003;49.518;11.280;2023-07-08T08:25:18;38.80;25.70
76211;DHT22;65003;49.518;11.280;2023-07-08T08:27:44;39.00;25.20
76211;DHT22;65003;49.518;11.280;2023-07-08T08:30:11;38.60;25.50
76211;DHT22;65003;49.518;11.280;2023-07-08T08:32:38;39.00;25.70
76211;DHT22;65003;49.518;11.280;2023-07-08T08:35:05;39.60;25.20
76211;DHT22;65003;49.518;11.280;2023-07-08T08:37:31;39.80;24.20
76211;DHT22;65003;49.518;11.280;2023-07-08T08:39:58;39.30;24.20
76211;DHT22;65003;49.518;11.280;2023-07-08T08:42:29;38.70;25.00
76211;DHT22;65003;49.518;11.280;2023-07-08T08:44:54;38.40;25.30
76211;DHT22;65003;49.518;11.280;2023-07-08T08:47:37;38.70;24.50
76211;DHT22;65003;49.518;11.280;2023-07-08T08:50:38;38.70;24.90
76211;DHT22;65003;49.518;11.280;2023-07-08T08:52:45;38.30;24.90
76211;DHT22;65003;49.518;11.280;2023-07-08T08:55:12;37.90;25.00
76211;DHT22;65003;49.518;11.280;2023-07-08T08:57:45;37.70;25.50
76211;DHT22;65003;49.518;11.280;2023-07-08T09:00:11;37.50;25.50
76211;DHT22;65003;49.518;11.280;2023-07-08T09:02:39;37.50;24.80
76211;DHT22;65003;49.518;11.280;2023-07-08T09:05:05;37.10;24.80
76211;DHT22;65003;49.518;11.280;2023-07-08T09:07:31;37.10;25.40
76211;DHT22;65003;49.518;11.280;2023-07-08T09:10:19;37.40;24.90
76211;DHT22;65003;49.518;11.280;2023-07-08T09:12:40;37.30;25.30
76211;DHT22;65003;49.518;11.280;2023-07-08T09:15:12;37.00;25.00
76211;DHT22;65003;49.518;11.280;2023-07-08T09:17:38;36.80;35.90
76211;DHT22;65003;49.518;11.280;2023-07-08T09:22:50;35.90;24.50
76211;DHT22;65003;49.518;11.280;2023-07-08T09:25:32;35.50;25.00
76211;DHT22;65003;49.518;11.280;2023-07-08T09:27:57;35.60;24.60
76211;DHT22;65003;49.518;11.280;2023-07-08T09:30:24;35.40;23.80
76211;DHT22;65003;49.518;11.280;2023-07-08T09:32:50;35.20;24.50
76211;DHT22;65003;49.518;11.280;2023-07-08T09:35:22;34.90;23.70
76211;DHT22;65003;49.518;11.280;2023-07-08T09:37:47;34.90;24.80
76211;DHT22;65003;49.518;11.280;2023-07-08T09:40:19;34.80;24.30
76211;DHT22;65003;49.518;11.280;2023-07-08T09:42:44;34.90;24.90
76211;DHT22;65003;49.518;11.280;2023-07-08T09:45:13;35.00;24.60
76211;DHT22;65003;49.518;11.280;2023-07-08T09:47:38;35.00;25.00
76211;DHT22;65003;49.518;11.280;2023-07-08T09:50:15;34.70;25.10
76211;DHT22;65003;49.518;11.280;2023-07-08T09:52:33;34.50;25.10
76211;DHT22;65003;49.518;11.280;2023-07-08T09:55:00;34.80;25.20
76211;DHT22;65003;49.518;11.280;2023-07-08T09:57:28;34.80;24.60
76211;DHT22;65003;49.518;11.280;2023-07-08T09:59:57;34.70;24.80
76211;DHT22;65003;49.518;11.280;2023-07-08T10:02:43;34.60;24.40
76211;DHT22;65003;49.518;11.280;2023-07-08T10:05:17;34.40;24.80
76211;DHT22;65003;49.518;11.280;2023-07-08T10:07:41;34.60;25.00
76211;DHT22;65003;49.518;11.280;2023-07-08T10:10:10;34.90;24.70
76211;DHT22;65003;49.518;11.280;2023-07-08T10:12:35;34.60;24.40
76211;DHT22;65003;49.518;11.280;2023-07-08T10:15:07;34.60;24.70
76211;DHT22;65003;49.518;11.280;2023-07-08T10:17:30;34.50;24.40
76211;DHT22;65003;49.518;11.280;2023-07-08T10:19:57;34.50;25.20
76211;DHT22;65003;49.518;11.280;2023-07-08T10:22:29;34.30;28.40
76211;DHT22;65003;49.518;11.280;2023-07-08T10:25:16;34.50;24.90
76211;DHT22;65003;49.518;11.280;2023-07-08T10:27:56;34.60;25.30
76211;DHT22;65003;49.518;11.280;2023-07-08T10:30:26;35.10;24.50
76211;DHT22;65003;49.518;11.280;2023-07-08T10:35:28;35.30;24.20
76211;DHT22;65003;49.518;11.280;2023-07-08T10:40:47;35.00;24.30
76211;DHT22;65003;49.518;11.280;2023-07-08T10:43:24;34.70;24.10
76211;DHT22;65003;49.518;11.280;2023-07-08T10:46:24;34.80;25.40
76211;DHT22;65003;49.518;11.280;2023-07-08T10:49:21;35.10;25.30
76211;DHT22;65003;49.518;11.280;2023-07-08T10:57:10;35.10;24.10
76211;DHT22;65003;49.518;11.280;2023-07-08T10:59:38;35.10;24.50
76211;DHT22;65003;49.518;11.280;2023-07-08T11:04:49;35.30;24.90
76211;DHT22;65003;49.518;11.280;2023-07-08T11:07:19;35.40;24.50
76211;DHT22;65003;49.518;11.280;2023-07-08T11:09:46;35.10;24.00
76211;DHT22;65003;49.518;11.280;2023-07-08T11:12:28;34.60;25.00
76211;DHT22;65003;49.518;11.280;2023-07-08T11:15:03;34.40;25.20
76211;DHT22;65003;49.518;11.280;2023-07-08T11:17:29;34.30;24.70
76211;DHT22;65003;49.518;11.280;2023-07-08T11:19:57;34.60;26.10
76211;DHT22;65003;49.518;11.280;2023-07-08T11:22:21;35.00;25.90
76211;DHT22;65003;49.518;11.280;2023-07-08T11:24:49;35.40;26.00
76211;DHT22;65003;49.518;11.280;2023-07-08T11:30:06;35.60;23.80
76211;DHT22;65003;49.518;11.280;2023-07-08T11:32:34;35.60;23.40
76211;DHT22;65003;49.518;11.280;2023-07-08T11:35:00;36.30;24.10
76211;DHT22;65003;49.518;11.280;2023-07-08T11:37:27;36.40;24.60
76211;DHT22;65003;49.518;11.280;2023-07-08T11:39:55;36.60;23.40
76211;DHT22;65003;49.518;11.280;2023-07-08T11:44:58;36.50;22.60
76211;DHT22;65003;49.518;11.280;2023-07-08T11:49:58;36.50;21.90
76211;DHT22;65003;49.518;11.280;2023-07-08T11:52:25;36.40;22.80
76211;DHT22;65003;49.518;11.280;2023-07-08T11:54:57;36.50;23.30
76211;DHT22;65003;49.518;11.280;2023-07-08T11:57:36;36.00;22.60
76211;DHT22;65003;49.518;11.280;2023-07-08T12:02:49;35.30;23.30
76211;DHT22;65003;49.518;11.280;2023-07-08T12:05:14;34.70;24.30
76211;DHT22;65003;49.518;11.280;2023-07-08T12:07:45;33.90;28.30
76211;DHT22;65003;49.518;11.280;2023-07-08T12:10:11;33.50;24.40
76211;DHT22;65003;49.518;11.280;2023-07-08T12:12:37;33.40;25.40
76211;DHT22;65003;49.518;11.280;2023-07-08T12:15:24;33.60;25.80
76211;DHT22;65003;49.518;11.280;2023-07-08T12:17:53;33.80;24.50
76211;DHT22;65003;49.518;11.280;2023-07-08T12:20:25;33.90;24.50
76211;DHT22;65003;49.518;11.280;2023-07-08T12:22:50;33.90;25.00
76211;DHT22;65003;49.518;11.280;2023-07-08T12:25:17;33.90;24.70
76211;DHT22;65003;49.518;11.280;2023-07-08T12:27:46;33.80;26.20
76211;DHT22;65003;49.518;11.280;2023-07-08T12:30:10;33.70;24.00
76211;DHT22;65003;49.518;11.280;2023-07-08T12:32:37;33.60;25.50
76211;DHT22;65003;49.518;11.280;2023-07-08T12:35:03;33.50;25.70
76211;DHT22;65003;49.518;11.280;2023-07-08T12:37:30;33.50;24.70
76211;DHT22;65003;49.518;11.280;2023-07-08T12:39:57;33.60;24.70
76211;DHT22;65003;49.518;11.280;2023-07-08T12:42:23;33.60;25.30
76211;DHT22;65003;49.518;11.280;2023-07-08T12:44:50;33.70;25.10
76211;DHT22;65003;49.518;11.280;2023-07-08T12:47:19;33.80;25.40
76211;DHT22;65003;49.518;11.280;2023-07-08T12:49:43;33.70;24.60
76211;DHT22;65003;49.518;11.280;2023-07-08T12:52:18;33.70;24.30
76211;DHT22;65003;49.518;11.280;2023-07-08T12:54:37;33.80;24.70
76211;DHT22;65003;49.518;11.280;2023-07-08T12:57:04;33.60;24.60
76211;DHT22;65003;49.518;11.280;2023-07-08T12:59:30;33.20;24.90
76211;DHT22;65003;49.518;11.280;2023-07-08T13:01:57;32.90;24.40
76211;DHT22;65003;49.518;11.280;2023-07-08T13:04:24;32.70;24.70
76211;DHT22;65003;49.518;11.280;2023-07-08T13:06:50;32.60;25.30
76211;DHT22;65003;49.518;11.280;2023-07-08T13:09:34;32.70;25.20
76211;DHT22;65003;49.518;11.280;2023-07-08T13:11:58;32.70;24.70
76211;DHT22;65003;49.518;11.280;2023-07-08T13:14:25;32.70;25.40
76211;DHT22;65003;49.518;11.280;2023-07-08T13:16:51;32.40;24.50
76211;DHT22;65003;49.518;11.280;2023-07-08T13:19:18;32.40;25.20
76211;DHT22;65003;49.518;11.280;2023-07-08T13:21:45;32.30;25.50
76211;DHT22;65003;49.518;11.280;2023-07-08T13:24:11;32.10;25.00
76211;DHT22;65003;49.518;11.280;2023-07-08T13:26:38;32.10;25.60
76211;DHT22;65003;49.518;11.280;2023-07-08T13:29:09;32.20;25.60
76211;DHT22;65003;49.518;11.280;2023-07-08T13:31:32;32.20;25.60
76211;DHT22;65003;49.518;11.280;2023-07-08T13:34:02;32.10;25.70
76211;DHT22;65003;49.518;11.280;2023-07-08T13:36:31;32.10;25.10
76211;DHT22;65003;49.518;11.280;2023-07-08T13:38:51;32.10;26.10
76211;DHT22;65003;49.518;11.280;2023-07-08T13:41:20;32.00;25.30
76211;DHT22;65003;49.518;11.280;2023-07-08T13:43:45;32.00;25.80
76211;DHT22;65003;49.518;11.280;2023-07-08T13:48:51;32.00;25.70
76211;DHT22;65003;49.518;11.280;2023-07-08T13:51:19;31.40;24.80
76211;DHT22;65003;49.518;11.280;2023-07-08T13:53:45;31.90;26.10
76211;DHT22;65003;49.518;11.280;2023-07-08T13:56:14;32.00;25.50
76211;DHT22;65003;49.518;11.280;2023-07-08T13:58:42;32.00;25.30
76211;DHT22;65003;49.518;11.280;2023-07-08T14:01:08;32.40;25.60
76211;DHT22;65003;49.518;11.280;2023-07-08T14:03:32;32.10;25.20
76211;DHT22;65003;49.518;11.280;2023-07-08T14:05:59;32.20;25.20
76211;DHT22;65003;49.518;11.280;2023-07-08T14:08:25;32.20;25.00
76211;DHT22;65003;49.518;11.280;2023-07-08T14:10:52;32.30;24.70
76211;DHT22;65003;49.518;11.280;2023-07-08T14:13:19;32.30;24.70
76211;DHT22;65003;49.518;11.280;2023-07-08T14:15:46;32.20;25.20
76211;DHT22;65003;49.518;11.280;2023-07-08T14:18:12;32.10;24.60
76211;DHT22;65003;49.518;11.280;2023-07-08T14:20:39;32.20;25.90
76211;DHT22;65003;49.518;11.280;2023-07-08T14:23:07;32.10;24.90
76211;DHT22;65003;49.518;11.280;2023-07-08T14:27:59;31.80;24.50
76211;DHT22;65003;49.518;11.280;2023-07-08T14:30:26;31.70;25.10
76211;DHT22;65003;49.518;11.280;2023-07-08T14:32:52;31.60;25.40
76211;DHT22;65003;49.518;11.280;2023-07-08T14:35:24;31.60;25.20
76211;DHT22;65003;49.518;11.280;2023-07-08T14:37:49;31.70;25.50
76211;DHT22;65003;49.518;11.280;2023-07-08T14:40:29;31.80;25.90
76211;DHT22;65003;49.518;11.280;2023-07-08T14:43:04;31.80;25.70
76211;DHT22;65003;49.518;11.280;2023-07-08T14:45:30;31.90;25.50
76211;DHT22;65003;49.518;11.280;2023-07-08T14:47:56;31.90;25.20
76211;DHT22;65003;49.518;11.280;2023-07-08T14:50:23;31.80;25.20
76211;DHT22;65003;49.518;11.280;2023-07-08T14:52:49;31.90;26.10
76211;DHT22;65003;49.518;11.280;2023-07-08T14:55:16;31.90;25.70
76211;DHT22;65003;49.518;11.280;2023-07-08T14:57:44;31.90;25.40
76211;DHT22;65003;49.518;11.280;2023-07-08T15:00:11;31.80;25.50
76211;DHT22;65003;49.518;11.280;2023-07-08T15:02:38;31.70;25.40
76211;DHT22;65003;49.518;11.280;2023-07-08T15:05:04;31.60;25.60
76211;DHT22;65003;49.518;11.280;2023-07-08T15:07:31;31.60;25.50
76211;DHT22;65003;49.518;11.280;2023-07-08T15:09:57;31.60;25.20
76211;DHT22;65003;49.518;11.280;2023-07-08T15:12:24;31.50;25.30
76211;DHT22;65003;49.518;11.280;2023-07-08T15:14:51;31.50;25.40
76211;DHT22;65003;49.518;11.280;2023-07-08T15:17:18;31.50;26.30
76211;DHT22;65003;49.518;11.280;2023-07-08T15:19:44;31.50;25.60
76211;DHT22;65003;49.518;11.280;2023-07-08T15:22:11;31.40;25.40
76211;DHT22;65003;49.518;11.280;2023-07-08T15:24:37;31.40;25.70
76211;DHT22;65003;49.518;11.280;2023-07-08T15:27:04;31.40;25.90
76211;DHT22;65003;49.518;11.280;2023-07-08T15:29:31;31.40;26.00
76211;DHT22;65003;49.518;11.280;2023-07-08T15:31:57;31.40;26.20
76211;DHT22;65003;49.518;11.280;2023-07-08T15:34:24;31.40;26.30
76211;DHT22;65003;49.518;11.280;2023-07-08T15:36:51;31.40;26.80
76211;DHT22;65003;49.518;11.280;2023-07-08T15:39:18;31.50;27.20
76211;DHT22;65003;49.518;11.280;2023-07-08T15:41:44;31.50;25.90
76211;DHT22;65003;49.518;11.280;2023-07-08T15:44:12;31.50;26.50
76211;DHT22;65003;49.518;11.280;2023-07-08T15:46:46;31.40;25.80
76211;DHT22;65003;49.518;11.280;2023-07-08T15:49:14;31.40;26.10
76211;DHT22;65003;49.518;11.280;2023-07-08T15:51:40;31.30;26.30
76211;DHT22;65003;49.518;11.280;2023-07-08T15:54:06;31.30;26.40